Shirley, NY

6:56 AM EST on February 07, 2016 (GMT -0500)
Residential higher plateau | | Change Station
CLOSE
Current Station
Personal Weather Station
Location: Shirley, NY
Elevation: 69 ft
Nearby Weather Stations

Elev 69 ft 40.80 °N, 72.87 °W | Updated 11 minutes ago

Clear
Clear
21.6 °F
Feels Like 22 °F
N
0.0
Wind Variable Wind from SSE

Today
High -- | Low -- °F
--% Chance of Precip.
Yesterday
High -- | Low -- °F
Precip. -- in
Pressure 30.20 in
Visibility 6.0 miles
Clouds Clear
Windchill 22 °F
Dew Point 21 °F
Humidity 97%
Rainfall 0.00 in
Snow Depth Not available.
6:55 AM 5:15 PM
Waning Crescent, 2% visible
METAR KHWV 071056Z AUTO 00000KT 6SM BR CLR M06/M07 A3020 RMK AO2 SLP226 I1001 T10611072 TSNO
Pressure 30.20 in
Visibility 6.0 miles
Clouds Clear
Windchill 22 °F
Dew Point 21 °F
Humidity 97%
Rainfall 0.00 in
Snow Depth Not available.
6:55 AM 5:15 PM
Waning Crescent, 2% visible
METAR KHWV 071056Z AUTO 00000KT 6SM BR CLR M06/M07 A3020 RMK AO2 SLP226 I1001 T10611072 TSNO

10-Day Weather Forecast

Almanac

Astronomy

Feb. 07, 2016 Rise Set
Actual Time
Civil Twilight
Nautical Twilight
Astronomical Twilight
Moon
Length of Visible Light
Length of Day
Tomorrow will be .
, % of the Moon is Illuminated

Today's Extremes

State Highs State Lows

Community

WunderPhotos

Upload Photos

1,891,182 photos uploaded!

WunderBlog® & News

Nearby

Air Quality

  Air Quality AQ Index Pollutant
Not available.

Snow Depth

Station Depth Elevation

Earthquake Activity

City Distance Mag. Time & Date
Minimum magnitude displayed is 2.5.

Coastal Water Temperatures

Place Temperature

Stations

Nearby Weather Stations

Station Location Temp. Windchill Dew Point Humidity Wind Precip. Elev Updated Type
                   

Watches & Warnings

There are currently no watches in effect.